createdAt,value
2019-03-01T00:02:24.120Z,5.20
2019-03-01T00:05:06.548Z,5.10
2019-03-01T00:07:53.538Z,5.10
2019-03-01T00:10:35.408Z,5.10
2019-03-01T00:13:28.227Z,5.00
2019-03-01T00:16:13.553Z,5.00
2019-03-01T00:19:03.464Z,4.90
2019-03-01T00:21:36.713Z,5.00
2019-03-01T00:24:24.840Z,4.90
2019-03-01T00:26:55.101Z,4.80
2019-03-01T00:29:27.915Z,4.80
2019-03-01T00:32:10.292Z,4.80
2019-03-01T00:34:49.312Z,4.80
2019-03-01T00:37:22.538Z,4.80
2019-03-01T00:40:02.483Z,4.60
2019-03-01T00:42:48.707Z,4.40
2019-03-01T00:45:15.158Z,4.40
2019-03-01T00:47:41.584Z,4.10
2019-03-01T00:50:08.531Z,4.20
2019-03-01T00:52:34.962Z,4.10
2019-03-01T00:55:01.529Z,4.20
2019-03-01T00:57:27.973Z,4.30
2019-03-01T00:59:54.405Z,4.30
2019-03-01T01:02:20.954Z,4.20
2019-03-01T01:04:47.406Z,4.00
2019-03-01T01:07:13.942Z,3.80
2019-03-01T01:09:40.473Z,3.80
2019-03-01T01:12:08.009Z,3.80
2019-03-01T01:14:34.449Z,3.80
2019-03-01T01:17:00.884Z,3.70
2019-03-01T01:19:27.350Z,3.70
2019-03-01T01:21:53.773Z,3.70
2019-03-01T01:24:20.196Z,3.80
2019-03-01T01:26:46.718Z,3.40
2019-03-01T01:29:13.243Z,3.50
2019-03-01T01:31:39.664Z,3.30
2019-03-01T01:34:06.111Z,3.40
2019-03-01T01:36:32.532Z,3.40
2019-03-01T01:38:59.074Z,3.40
2019-03-01T01:41:25.518Z,3.40
2019-03-01T01:43:51.986Z,3.40
2019-03-01T01:46:18.422Z,3.30
2019-03-01T01:48:44.894Z,3.30
2019-03-01T01:51:11.318Z,3.20
2019-03-01T01:53:37.763Z,3.30
2019-03-01T01:56:04.301Z,3.10
2019-03-01T01:58:30.807Z,3.10
2019-03-01T02:00:57.268Z,3.10
2019-03-01T02:03:23.727Z,3.10
2019-03-01T02:05:50.155Z,3.00
2019-03-01T02:08:16.697Z,2.80
2019-03-01T02:10:43.142Z,2.90
2019-03-01T02:13:09.706Z,2.90
2019-03-01T02:15:36.157Z,2.80
2019-03-01T02:18:03.416Z,2.90
2019-03-01T02:20:29.938Z,3.00
2019-03-01T02:22:56.384Z,2.90
2019-03-01T02:25:22.835Z,2.90
2019-03-01T02:27:49.373Z,3.00
2019-03-01T02:30:25.502Z,2.90
2019-03-01T02:32:51.918Z,2.50
2019-03-01T02:35:18.763Z,2.60
2019-03-01T02:37:46.321Z,2.60
2019-03-01T02:40:14.349Z,2.40
2019-03-01T02:42:40.878Z,2.50
2019-03-01T02:45:10.323Z,2.50
2019-03-01T02:47:36.851Z,2.60
2019-03-01T02:50:05.903Z,2.30
2019-03-01T02:52:32.338Z,2.50
2019-03-01T02:54:58.782Z,2.40
2019-03-01T02:57:25.227Z,2.40
2019-03-01T02:59:51.717Z,2.50
2019-03-01T03:02:18.306Z,2.70
2019-03-01T03:04:44.847Z,2.70
2019-03-01T03:07:13.208Z,2.60
2019-03-01T03:09:39.630Z,2.40
2019-03-01T03:12:06.081Z,2.40
2019-03-01T03:14:32.544Z,2.30
2019-03-01T03:16:59.002Z,2.40
2019-03-01T03:19:25.487Z,2.00
2019-03-01T03:21:52.043Z,1.80
2019-03-01T03:24:18.472Z,1.80
2019-03-01T03:26:44.917Z,1.30
2019-03-01T03:29:11.354Z,1.50
2019-03-01T03:31:37.765Z,1.80
2019-03-01T03:34:04.249Z,1.80
2019-03-01T03:36:30.703Z,1.80
2019-03-01T03:38:57.264Z,1.60
2019-03-01T03:41:23.700Z,1.50
2019-03-01T03:43:50.142Z,1.30
2019-03-01T03:46:16.610Z,1.40
2019-03-01T03:48:43.058Z,1.50
2019-03-01T03:51:09.491Z,1.90
2019-03-01T03:53:35.902Z,2.10
2019-03-01T03:56:02.761Z,1.90
2019-03-01T03:58:29.193Z,1.90
2019-03-01T04:00:55.660Z,2.00
2019-03-01T04:03:22.401Z,2.10
2019-03-01T04:05:49.075Z,2.10
2019-03-01T04:08:15.499Z,1.90
2019-03-01T04:10:41.925Z,2.00
2019-03-01T04:13:08.357Z,1.90
2019-03-01T04:15:34.787Z,1.90
2019-03-01T04:18:01.237Z,1.80
2019-03-01T04:20:27.666Z,1.70
2019-03-01T04:22:54.119Z,1.70
2019-03-01T04:25:20.564Z,1.40
2019-03-01T04:27:47.029Z,1.30
2019-03-01T04:30:16.956Z,1.30
2019-03-01T04:32:43.502Z,1.40
2019-03-01T04:35:10.249Z,1.20
2019-03-01T04:37:37.035Z,1.30
2019-03-01T04:40:06.854Z,1.40
2019-03-01T04:42:33.333Z,1.40
2019-03-01T04:44:59.764Z,1.40
2019-03-01T04:47:26.222Z,1.60
2019-03-01T04:49:52.653Z,1.70
2019-03-01T04:52:28.424Z,1.60
2019-03-01T04:54:55.278Z,1.70
2019-03-01T04:57:21.701Z,1.70
2019-03-01T04:59:48.143Z,1.80
2019-03-01T05:02:15.637Z,1.80
2019-03-01T05:04:42.093Z,1.60
2019-03-01T05:07:08.516Z,1.50
2019-03-01T05:09:34.990Z,1.60
2019-03-01T05:12:01.420Z,1.50
2019-03-01T05:14:27.860Z,1.40
2019-03-01T05:16:54.294Z,1.40
2019-03-01T05:19:20.753Z,1.30
2019-03-01T05:21:48.199Z,1.30
2019-03-01T05:24:14.643Z,1.30
2019-03-01T05:26:41.065Z,1.30
2019-03-01T05:29:07.546Z,1.30
2019-03-01T05:31:33.953Z,1.20
2019-03-01T05:34:00.386Z,1.50
2019-03-01T05:36:26.838Z,1.40
2019-03-01T05:38:53.292Z,1.30
2019-03-01T05:41:19.773Z,1.30
2019-03-01T05:43:46.235Z,1.30
2019-03-01T05:46:12.688Z,1.40
2019-03-01T05:48:39.116Z,1.40
2019-03-01T05:51:05.570Z,1.40
2019-03-01T05:53:32.003Z,1.30
2019-03-01T05:55:59.449Z,1.20
2019-03-01T05:58:33.607Z,1.40
2019-03-01T06:01:09.949Z,1.30
2019-03-01T06:03:52.047Z,1.20
2019-03-01T06:06:43.308Z,1.20
2019-03-01T06:09:31.797Z,1.20
2019-03-01T06:12:23.250Z,1.20
2019-03-01T06:15:19.202Z,1.30
2019-03-01T06:18:06.136Z,1.40
2019-03-01T06:20:53.046Z,1.50
2019-03-01T06:23:29.264Z,1.40
2019-03-01T06:26:02.489Z,1.40
2019-03-01T06:28:38.503Z,1.40
2019-03-01T06:31:31.321Z,1.40
2019-03-01T06:34:07.597Z,1.40
2019-03-01T06:36:49.937Z,1.40
2019-03-01T06:39:22.099Z,1.40
2019-03-01T06:41:58.209Z,1.50
2019-03-01T06:44:34.462Z,1.60
2019-03-01T06:47:37.759Z,1.60
2019-03-01T06:50:21.820Z,1.80
2019-03-01T06:52:48.458Z,1.90
2019-03-01T06:55:30.826Z,1.90
2019-03-01T06:57:57.373Z,2.00
2019-03-01T07:00:23.913Z,2.00
2019-03-01T07:02:52.251Z,2.10
2019-03-01T07:05:19.580Z,2.20
2019-03-01T07:07:46.043Z,2.30
2019-03-01T07:10:12.498Z,2.40
2019-03-01T07:12:39.950Z,2.60
2019-03-01T07:15:08.735Z,2.80
2019-03-01T07:17:35.250Z,3.00
2019-03-01T07:20:01.819Z,3.00
2019-03-01T07:22:28.345Z,3.10
2019-03-01T07:24:54.795Z,3.20
2019-03-01T07:27:21.233Z,3.20
2019-03-01T07:29:47.690Z,3.20
2019-03-01T07:32:14.119Z,3.20
2019-03-01T07:34:40.687Z,3.30
2019-03-01T07:37:07.099Z,3.30
2019-03-01T07:39:33.649Z,3.50
2019-03-01T07:42:00.096Z,3.60
2019-03-01T07:44:26.542Z,3.70
2019-03-01T07:46:54.210Z,3.80
2019-03-01T07:49:20.786Z,3.80
2019-03-01T07:51:47.345Z,3.70
2019-03-01T07:54:16.980Z,3.80
2019-03-01T07:56:42.170Z,3.80
2019-03-01T07:59:09.692Z,4.00
2019-03-01T08:01:36.241Z,4.10
2019-03-01T08:04:03.695Z,4.20
2019-03-01T08:06:30.351Z,4.20
2019-03-01T08:08:56.804Z,4.20
2019-03-01T08:11:23.268Z,4.40
2019-03-01T08:13:52.960Z,4.60
2019-03-01T08:16:20.217Z,4.70
2019-03-01T08:18:46.313Z,4.90
2019-03-01T08:21:14.826Z,5.00
2019-03-01T08:23:40.983Z,5.20
2019-03-01T08:26:07.439Z,5.40
2019-03-01T08:28:33.974Z,5.70
2019-03-01T08:31:00.405Z,6.00
2019-03-01T08:33:26.872Z,6.20
2019-03-01T08:35:53.270Z,6.50
2019-03-01T08:38:19.801Z,6.70
2019-03-01T08:40:46.710Z,6.90
2019-03-01T08:43:14.494Z,7.00
2019-03-01T08:45:40.926Z,7.30
2019-03-01T08:48:07.383Z,7.50
2019-03-01T08:50:33.855Z,7.50
2019-03-01T08:53:00.316Z,7.70
2019-03-01T08:55:28.881Z,7.90
2019-03-01T08:57:59.710Z,8.00
2019-03-01T09:00:29.966Z,8.00
2019-03-01T09:02:59.732Z,8.20
2019-03-01T09:05:26.195Z,8.40
2019-03-01T09:07:52.702Z,8.90
2019-03-01T09:10:19.226Z,9.20
2019-03-01T09:12:46.778Z,9.40
2019-03-01T09:15:14.237Z,9.60
2019-03-01T09:17:40.791Z,9.80
2019-03-01T09:20:12.343Z,10.30
2019-03-01T09:22:38.836Z,10.70
2019-03-01T09:25:08.837Z,11.00
2019-03-01T09:27:35.329Z,11.10
2019-03-01T09:30:03.910Z,11.30
2019-03-01T09:32:33.890Z,11.00
2019-03-01T09:35:16.061Z,11.00
2019-03-01T09:37:43.358Z,11.40
2019-03-01T09:40:09.895Z,11.60
2019-03-01T09:42:36.447Z,11.40
2019-03-01T09:45:05.694Z,11.20
2019-03-01T09:47:36.690Z,11.30
2019-03-01T09:50:05.028Z,11.50
2019-03-01T09:52:31.447Z,11.60
2019-03-01T09:54:57.935Z,11.60
2019-03-01T09:57:25.187Z,11.60
2019-03-01T09:59:51.666Z,11.80
2019-03-01T10:02:18.117Z,12.10
2019-03-01T10:04:45.687Z,12.30
2019-03-01T10:07:12.114Z,12.70
2019-03-01T10:09:38.677Z,13.10
2019-03-01T10:12:05.135Z,13.20
2019-03-01T10:14:31.607Z,13.20
2019-03-01T10:16:58.067Z,13.10
2019-03-01T10:19:24.520Z,13.50
2019-03-01T10:21:51.149Z,13.70
2019-03-01T10:24:17.583Z,13.50
2019-03-01T10:26:44.063Z,13.90
2019-03-01T10:29:10.486Z,14.30
2019-03-01T10:31:36.915Z,14.20
2019-03-01T10:34:04.365Z,14.30
2019-03-01T10:36:30.797Z,14.60
2019-03-01T10:38:57.241Z,13.90
2019-03-01T10:41:23.680Z,13.90
2019-03-01T10:43:50.121Z,14.40
2019-03-01T10:46:16.530Z,14.70
2019-03-01T10:48:43.077Z,15.10
2019-03-01T10:51:09.518Z,15.30
2019-03-01T10:53:35.942Z,15.10
2019-03-01T10:56:02.580Z,15.50
2019-03-01T10:58:29.146Z,15.90
2019-03-01T11:00:55.697Z,15.90
2019-03-01T11:03:22.159Z,16.30
2019-03-01T11:05:48.829Z,16.60
2019-03-01T11:08:15.308Z,16.80
2019-03-01T11:10:41.799Z,16.80
2019-03-01T11:13:15.547Z,16.70
2019-03-01T11:15:42.015Z,16.80
2019-03-01T11:18:09.573Z,17.10
2019-03-01T11:20:36.048Z,17.20
2019-03-01T11:23:02.814Z,17.60
2019-03-01T11:25:29.364Z,17.60
2019-03-01T11:27:55.894Z,17.50
2019-03-01T11:30:33.965Z,17.80
2019-03-01T11:33:00.486Z,18.20
2019-03-01T11:35:27.326Z,18.50
2019-03-01T11:37:54.074Z,18.20
2019-03-01T11:40:27.343Z,18.00
2019-03-01T11:42:53.802Z,17.80
2019-03-01T11:45:20.356Z,17.10
2019-03-01T11:47:47.035Z,16.40
2019-03-01T11:50:15.983Z,16.20
2019-03-01T11:52:42.541Z,16.30
2019-03-01T11:55:09.488Z,16.30
2019-03-01T11:57:36.035Z,16.40
2019-03-01T12:00:06.284Z,15.90
2019-03-01T12:02:33.174Z,16.20
2019-03-01T12:04:59.643Z,15.90
2019-03-01T12:07:26.105Z,16.00
2019-03-01T12:09:52.522Z,16.20
2019-03-01T12:12:19.013Z,16.40
2019-03-01T12:14:45.476Z,16.60
2019-03-01T12:17:11.965Z,16.90
2019-03-01T12:19:38.530Z,17.10
2019-03-01T12:22:05.129Z,18.10
2019-03-01T12:24:31.748Z,21.20
2019-03-01T12:26:58.304Z,24.70
2019-03-01T12:29:24.735Z,26.80
2019-03-01T12:31:51.182Z,28.30
2019-03-01T12:34:17.666Z,26.80
2019-03-01T12:36:44.140Z,25.10
2019-03-01T12:39:10.676Z,24.30
2019-03-01T12:41:37.917Z,22.70
2019-03-01T12:44:04.492Z,23.10
2019-03-01T12:46:31.009Z,22.30
2019-03-01T12:48:57.457Z,21.50
2019-03-01T12:51:23.898Z,21.60
2019-03-01T12:53:50.365Z,21.20
2019-03-01T12:56:16.797Z,21.20
2019-03-01T12:58:43.356Z,20.90
2019-03-01T13:01:09.774Z,20.20
2019-03-01T13:03:36.318Z,19.80
2019-03-01T13:06:03.866Z,19.10
2019-03-01T13:08:31.143Z,18.30
2019-03-01T13:10:57.794Z,18.20
2019-03-01T13:13:24.289Z,18.30
2019-03-01T13:15:52.272Z,18.40
2019-03-01T13:18:18.813Z,18.20
2019-03-01T13:20:45.305Z,18.20
2019-03-01T13:23:11.727Z,18.00
2019-03-01T13:25:38.273Z,17.80
2019-03-01T13:28:04.718Z,17.70
2019-03-01T13:30:32.506Z,17.50
2019-03-01T13:33:02.240Z,17.50
2019-03-01T13:35:27.805Z,17.30
2019-03-01T13:37:55.537Z,16.80
2019-03-01T13:40:24.522Z,16.90
2019-03-01T13:42:52.017Z,16.80
2019-03-01T13:45:23.016Z,16.70
2019-03-01T13:47:49.469Z,16.60
2019-03-01T13:50:17.624Z,16.50
2019-03-01T13:52:44.271Z,16.40
2019-03-01T13:55:12.038Z,16.30
2019-03-01T13:57:38.514Z,15.90
2019-03-01T14:00:08.960Z,15.80
2019-03-01T14:02:35.515Z,15.80
2019-03-01T14:05:02.182Z,15.90
2019-03-01T14:07:28.715Z,15.90
2019-03-01T14:09:55.198Z,15.90
2019-03-01T14:12:21.653Z,15.90
2019-03-01T14:14:48.149Z,15.70
2019-03-01T14:17:14.614Z,15.60
2019-03-01T14:19:42.286Z,15.60
2019-03-01T14:22:13.128Z,15.60
2019-03-01T14:24:37.661Z,15.60
2019-03-01T14:27:04.160Z,15.60
2019-03-01T14:29:30.632Z,15.60
2019-03-01T14:31:58.117Z,15.50
2019-03-01T14:34:24.620Z,15.50
2019-03-01T14:36:52.064Z,15.50
2019-03-01T14:39:18.515Z,15.40
2019-03-01T14:41:45.119Z,15.30
2019-03-01T14:44:12.577Z,15.30
2019-03-01T14:46:38.999Z,15.20
2019-03-01T14:49:05.561Z,15.10
2019-03-01T14:51:32.990Z,15.10
2019-03-01T14:53:59.518Z,15.00
2019-03-01T14:56:31.223Z,14.90
2019-03-01T14:59:20.878Z,14.80
2019-03-01T15:02:04.164Z,14.90
2019-03-01T15:04:30.939Z,15.00
2019-03-01T15:06:57.431Z,14.90
2019-03-01T15:09:23.903Z,14.90
2019-03-01T15:11:50.404Z,14.70
2019-03-01T15:14:16.888Z,14.60
2019-03-01T15:16:44.346Z,14.60
2019-03-01T15:19:10.863Z,14.60
2019-03-01T15:21:38.317Z,14.50
2019-03-01T15:24:04.994Z,14.50
2019-03-01T15:26:31.424Z,14.60
2019-03-01T15:28:58.825Z,14.60
2019-03-01T15:31:25.484Z,14.50
2019-03-01T15:33:52.054Z,14.50
2019-03-01T15:36:19.159Z,14.30
2019-03-01T15:38:45.733Z,14.30
2019-03-01T15:41:12.358Z,14.30
2019-03-01T15:43:38.952Z,14.40
2019-03-01T15:46:05.596Z,14.40
2019-03-01T15:48:34.540Z,14.20
2019-03-01T15:51:02.437Z,14.20
2019-03-01T15:53:28.687Z,14.10
2019-03-01T15:55:55.213Z,14.00
2019-03-01T15:58:22.684Z,13.90
2019-03-01T16:00:49.232Z,13.70
2019-03-01T16:03:15.796Z,13.70
2019-03-01T16:05:42.350Z,13.60
2019-03-01T16:08:09.263Z,13.40
2019-03-01T16:10:36.972Z,13.30
2019-03-01T16:13:03.559Z,13.40
2019-03-01T16:15:30.195Z,13.50
2019-03-01T16:17:57.627Z,13.40
2019-03-01T16:20:25.137Z,13.30
2019-03-01T16:22:54.050Z,13.00
2019-03-01T16:25:21.545Z,12.90
2019-03-01T16:27:50.789Z,12.70
2019-03-01T16:30:18.354Z,12.60
2019-03-01T16:32:49.532Z,12.50
2019-03-01T16:35:17.500Z,12.40
2019-03-01T16:37:46.135Z,12.40
2019-03-01T16:40:13.497Z,12.50
2019-03-01T16:42:41.182Z,12.20
2019-03-01T16:45:11.101Z,12.00
2019-03-01T16:47:38.285Z,11.90
2019-03-01T16:50:15.398Z,11.60
2019-03-01T16:52:42.093Z,11.10
2019-03-01T16:55:12.312Z,10.90
2019-03-01T16:57:38.882Z,10.80
2019-03-01T17:00:09.108Z,10.70
2019-03-01T17:02:38.644Z,10.70
2019-03-01T17:05:06.034Z,10.70
2019-03-01T17:07:32.515Z,10.60
2019-03-01T17:09:58.960Z,10.60
2019-03-01T17:12:25.438Z,10.50
2019-03-01T17:14:51.899Z,10.40
2019-03-01T17:17:18.546Z,10.20
2019-03-01T17:19:45.020Z,9.90
2019-03-01T17:22:11.472Z,9.80
2019-03-01T17:24:37.937Z,9.70
2019-03-01T17:27:05.572Z,9.80
2019-03-01T17:29:35.727Z,9.80
2019-03-01T17:32:02.069Z,9.70
2019-03-01T17:34:29.425Z,9.70
2019-03-01T17:36:56.130Z,9.70
2019-03-01T17:39:22.597Z,9.60
2019-03-01T17:41:49.033Z,9.50
2019-03-01T17:44:16.642Z,9.60
2019-03-01T17:46:43.129Z,9.50
2019-03-01T17:49:09.715Z,9.60
2019-03-01T17:51:37.200Z,9.60
2019-03-01T17:54:03.647Z,9.70
2019-03-01T17:56:30.119Z,9.60
2019-03-01T17:58:57.564Z,9.50
2019-03-01T18:01:24.534Z,9.50
2019-03-01T18:03:50.991Z,9.20
2019-03-01T18:06:17.978Z,9.20
2019-03-01T18:08:44.437Z,9.30
2019-03-01T18:11:11.022Z,9.40
2019-03-01T18:13:37.526Z,9.50
2019-03-01T18:16:04.182Z,9.60
2019-03-01T18:18:30.633Z,9.70
2019-03-01T18:20:57.092Z,9.70
2019-03-01T18:23:23.695Z,9.70
2019-03-01T18:25:50.251Z,9.70
2019-03-01T18:28:16.826Z,9.60
2019-03-01T18:30:43.399Z,9.50
2019-03-01T18:33:09.892Z,9.50
2019-03-01T18:35:36.333Z,9.50
2019-03-01T18:38:02.986Z,9.60
2019-03-01T18:40:29.646Z,9.60
2019-03-01T18:42:56.190Z,9.60
2019-03-01T18:45:23.937Z,9.60
2019-03-01T18:47:50.420Z,9.70
2019-03-01T18:50:23.474Z,9.70
2019-03-01T18:52:53.099Z,9.80
2019-03-01T18:55:18.523Z,9.90
2019-03-01T18:57:45.190Z,10.00
2019-03-01T19:00:20.656Z,10.10
2019-03-01T19:02:47.310Z,10.30
2019-03-01T19:05:13.884Z,10.30
2019-03-01T19:07:41.370Z,10.20
2019-03-01T19:10:13.785Z,10.10
2019-03-01T19:12:41.099Z,10.10
2019-03-01T19:15:12.119Z,10.20
2019-03-01T19:17:40.743Z,10.20
2019-03-01T19:20:22.496Z,10.10
2019-03-01T19:22:49.300Z,10.00
2019-03-01T19:25:16.164Z,10.30
2019-03-01T19:27:42.979Z,10.40
2019-03-01T19:30:14.990Z,10.20
2019-03-01T19:32:47.810Z,10.00
2019-03-01T19:35:14.695Z,10.00
2019-03-01T19:37:41.261Z,10.00
2019-03-01T19:40:10.998Z,10.00
2019-03-01T19:42:38.185Z,9.90
2019-03-01T19:45:07.735Z,9.60
2019-03-01T19:47:34.298Z,9.50
2019-03-01T19:50:00.750Z,9.20
2019-03-01T19:52:27.223Z,9.20
2019-03-01T19:54:53.781Z,9.20
2019-03-01T19:57:20.228Z,9.30
2019-03-01T19:59:49.372Z,9.40
2019-03-01T20:02:14.950Z,9.40
2019-03-01T20:04:41.439Z,9.30
2019-03-01T20:07:07.912Z,9.20
2019-03-01T20:09:36.552Z,9.20
2019-03-01T20:12:03.691Z,9.20
2019-03-01T20:14:33.734Z,9.10
2019-03-01T20:16:59.551Z,9.10
2019-03-01T20:19:26.048Z,9.00
2019-03-01T20:21:52.542Z,8.80
2019-03-01T20:24:19.310Z,8.80
2019-03-01T20:26:45.739Z,8.70
2019-03-01T20:29:12.479Z,8.60
2019-03-01T20:31:40.474Z,8.50
2019-03-01T20:34:08.204Z,8.50
2019-03-01T20:36:34.739Z,8.50
2019-03-01T20:39:01.187Z,8.50
2019-03-01T20:41:29.513Z,8.50
2019-03-01T20:43:55.948Z,8.40
2019-03-01T20:46:24.366Z,8.20
2019-03-01T20:48:50.892Z,8.10
2019-03-01T20:51:17.442Z,8.00
2019-03-01T20:53:45.729Z,8.00
2019-03-01T20:56:13.814Z,7.80
2019-03-01T20:58:40.610Z,7.80
2019-03-01T21:01:07.070Z,7.90
2019-03-01T21:03:33.537Z,7.80
2019-03-01T21:06:01.761Z,7.60
2019-03-01T21:08:29.108Z,7.50
2019-03-01T21:10:56.193Z,7.40
2019-03-01T21:13:22.649Z,7.40
2019-03-01T21:15:49.206Z,7.30
2019-03-01T21:18:16.677Z,7.10
2019-03-01T21:20:43.142Z,7.00
2019-03-01T21:23:11.774Z,6.90
2019-03-01T21:25:39.777Z,6.80
2019-03-01T21:28:06.381Z,6.60
2019-03-01T21:30:33.736Z,6.60
2019-03-01T21:33:00.270Z,6.40
2019-03-01T21:35:26.767Z,6.30
2019-03-01T21:37:53.396Z,6.10
2019-03-01T21:40:19.987Z,6.10
2019-03-01T21:42:46.461Z,5.80
2019-03-01T21:45:21.609Z,5.90
2019-03-01T21:47:48.266Z,5.80
2019-03-01T21:50:15.505Z,5.70
2019-03-01T21:52:42.056Z,5.70
2019-03-01T21:55:10.523Z,5.80
2019-03-01T21:57:39.046Z,5.80
2019-03-01T22:00:09.293Z,5.90
2019-03-01T22:02:37.625Z,5.70
2019-03-01T22:05:10.275Z,5.60
2019-03-01T22:07:37.141Z,5.50
2019-03-01T22:10:11.595Z,5.20
2019-03-01T22:12:38.006Z,4.90
2019-03-01T22:15:13.665Z,4.60
2019-03-01T22:17:40.100Z,4.70
2019-03-01T22:20:09.977Z,4.80
2019-03-01T22:22:37.550Z,4.90
2019-03-01T22:25:07.137Z,4.90
2019-03-01T22:27:33.733Z,4.80
2019-03-01T22:30:00.244Z,4.90
2019-03-01T22:32:26.734Z,4.90
2019-03-01T22:34:53.177Z,5.00
2019-03-01T22:37:19.605Z,4.90
2019-03-01T22:39:48.374Z,4.90
2019-03-01T22:42:15.106Z,4.90
2019-03-01T22:44:41.548Z,4.80
2019-03-01T22:47:07.986Z,4.70
2019-03-01T22:49:34.614Z,4.80
2019-03-01T22:52:01.065Z,4.70
2019-03-01T22:54:27.480Z,4.70
2019-03-01T22:56:54.003Z,4.70
2019-03-01T22:59:20.426Z,4.70
2019-03-01T23:01:46.962Z,4.90
2019-03-01T23:04:13.484Z,4.90
2019-03-01T23:06:39.924Z,4.70
2019-03-01T23:09:10.658Z,4.70
2019-03-01T23:11:38.586Z,4.60
2019-03-01T23:14:05.149Z,4.70
2019-03-01T23:16:31.612Z,4.50
2019-03-01T23:18:58.041Z,4.40
2019-03-01T23:21:24.487Z,4.40
2019-03-01T23:23:50.934Z,4.20
2019-03-01T23:26:18.578Z,4.20
2019-03-01T23:28:45.672Z,4.20
2019-03-01T23:31:13.336Z,4.20
2019-03-01T23:33:39.854Z,4.20
2019-03-01T23:36:06.296Z,4.10
2019-03-01T23:38:32.732Z,4.00
2019-03-01T23:40:59.173Z,4.00
2019-03-01T23:43:27.627Z,4.00
2019-03-01T23:45:55.134Z,4.00
2019-03-01T23:48:21.610Z,3.80
2019-03-01T23:50:48.055Z,3.60
2019-03-01T23:53:14.509Z,3.40
2019-03-01T23:55:40.933Z,3.30
2019-03-01T23:58:07.391Z,3.30
